Time;durP1;ratioP1;P1;durP2;ratioP2;P2;SDS_P1;SDS_P2;PMS_P1;PMS_P2;Temp;Humidity;BMP_temperature;BMP_pressure;BME280_temperature;BME280_humidity;BME280_pressure;Samples;Min_cycle;Max_cycle;Signal;HPM_P1;HPM_P2
2022/04/12 00:00:32;;;;;;;5.82;3.80;;;;;;;;;;6160345;23;20040;-90
2022/04/12 00:02:58;;;;;;;6.20;4.18;;;;;;;;;;6135633;23;20017;-94
2022/04/12 00:05:24;;;;;;;8.95;5.25;;;;;;;;;;6161133;23;20017;-94
2022/04/12 00:07:50;;;;;;;4.75;4.25;;;;;;;;;;6160280;23;20067;-90
2022/04/12 00:10:17;;;;;;;7.50;4.10;;;;;;;;;;6135569;23;20351;-89
2022/04/12 00:12:43;;;;;;;9.10;4.28;;;;;;;;;;6159880;23;20017;-89
2022/04/12 00:15:10;;;;;;;6.28;3.78;;;;;;;;;;6160240;23;20017;-91
2022/04/12 00:20:26;;;;;;;7.63;4.13;;;;;;;;;;6160894;23;20746;-91
2022/04/12 00:22:56;;;;;;;5.85;3.65;;;;;;;;;;6161040;23;20017;-90
2022/04/12 00:25:23;;;;;;;4.97;3.88;;;;;;;;;;6136004;23;20017;-92
2022/04/12 00:27:53;;;;;;;8.43;4.25;;;;;;;;;;6136086;23;20047;-90
2022/04/12 00:30:19;;;;;;;8.70;4.45;;;;;;;;;;6135611;23;20140;-91
2022/04/12 00:32:46;;;;;;;4.13;3.72;;;;;;;;;;6136096;23;20346;-89
2022/04/12 00:35:13;;;;;;;4.95;4.18;;;;;;;;;;6159700;23;20037;-92
2022/04/12 00:37:39;;;;;;;6.18;4.05;;;;;;;;;;6135391;23;20017;-89
2022/04/12 00:40:05;;;;;;;4.20;3.63;;;;;;;;;;6160158;23;20485;-89
2022/04/12 00:42:32;;;;;;;7.68;3.83;;;;;;;;;;6160279;23;20017;-88
2022/04/12 00:44:58;;;;;;;8.82;3.95;;;;;;;;;;6135121;23;20021;-89
2022/04/12 00:47:24;;;;;;;5.30;3.92;;;;;;;;;;6160015;23;20021;-93
2022/04/12 00:49:50;;;;;;;8.15;4.07;;;;;;;;;;6135051;23;20025;-89
2022/04/12 00:52:17;;;;;;;7.15;4.50;;;;;;;;;;6159881;23;20067;-90
2022/04/12 00:54:44;;;;;;;6.85;4.43;;;;;;;;;;6159411;23;20044;-90
2022/04/12 00:57:11;;;;;;;5.28;4.05;;;;;;;;;;6134626;23;20013;-90
2022/04/12 00:59:37;;;;;;;6.97;3.97;;;;;;;;;;6135908;23;20013;-89
2022/04/12 01:02:04;;;;;;;7.85;4.10;;;;;;;;;;6135267;23;20017;-89
2022/04/12 01:04:30;;;;;;;5.13;4.10;;;;;;;;;;6160384;23;20060;-88
2022/04/12 01:06:56;;;;;;;5.57;4.65;;;;;;;;;;6160777;23;20346;-89
2022/04/12 01:09:26;;;;;;;9.38;4.50;;;;;;;;;;6160343;23;20044;-93
2022/04/12 01:11:52;;;;;;;5.93;4.43;;;;;;;;;;6135087;23;20359;-92
2022/04/12 01:14:18;;;;;;;6.60;4.32;;;;;;;;;;6135170;23;20021;-93
2022/04/12 01:16:44;;;;;;;6.88;4.72;;;;;;;;;;6135149;23;20464;-94
2022/04/12 01:19:10;;;;;;;9.00;4.50;;;;;;;;;;6135945;23;20021;-88
2022/04/12 01:21:39;;;;;;;7.30;4.50;;;;;;;;;;6136189;23;20017;-86
2022/04/12 01:24:06;;;;;;;5.78;4.75;;;;;;;;;;6136882;23;20020;-90
2022/04/12 01:26:32;;;;;;;7.70;4.82;;;;;;;;;;6161402;23;20056;-93
2022/04/12 01:28:58;;;;;;;8.05;4.45;;;;;;;;;;6161581;23;20362;-94
2022/04/12 01:31:25;;;;;;;6.40;5.35;;;;;;;;;;6137029;23;20024;-90
2022/04/12 01:33:52;;;;;;;10.00;5.32;;;;;;;;;;6136040;23;20027;-91
2022/04/12 01:36:18;;;;;;;11.60;5.50;;;;;;;;;;6134880;23;20067;-84
2022/04/12 01:38:44;;;;;;;7.93;5.03;;;;;;;;;;6160214;23;20477;-85
2022/04/12 01:41:10;;;;;;;6.75;4.93;;;;;;;;;;6135110;23;20101;-83
2022/04/12 01:43:36;;;;;;;8.05;5.05;;;;;;;;;;6136214;23;20021;-90
2022/04/12 01:46:02;;;;;;;7.88;5.28;;;;;;;;;;6161455;23;20017;-85
2022/04/12 01:48:28;;;;;;;9.07;5.63;;;;;;;;;;6135762;23;20028;-83
2022/04/12 01:50:54;;;;;;;8.32;5.60;;;;;;;;;;6136682;23;20100;-83
2022/04/12 01:53:20;;;;;;;8.18;5.25;;;;;;;;;;6160369;23;20060;-87
2022/04/12 01:55:46;;;;;;;7.55;5.80;;;;;;;;;;6160272;23;20021;-87
2022/04/12 01:58:13;;;;;;;6.60;5.32;;;;;;;;;;6160066;23;20017;-85
2022/04/12 02:00:40;;;;;;;6.75;5.35;;;;;;;;;;6135730;23;20021;-86
2022/04/12 02:03:06;;;;;;;11.50;5.57;;;;;;;;;;6160218;23;20096;-89
2022/04/12 02:05:32;;;;;;;12.68;6.40;;;;;;;;;;6159971;23;20451;-89
2022/04/12 02:07:58;;;;;;;8.10;5.15;;;;;;;;;;6135056;23;20056;-91
2022/04/12 02:10:24;;;;;;;7.75;5.97;;;;;;;;;;6134433;23;20017;-83
2022/04/12 02:12:50;;;;;;;6.68;5.70;;;;;;;;;;6159924;23;20017;-85
2022/04/12 02:15:17;;;;;;;9.90;6.05;;;;;;;;;;6159743;23;20360;-82
2022/04/12 02:17:43;;;;;;;12.30;5.80;;;;;;;;;;6135968;23;20021;-89
2022/04/12 02:20:10;;;;;;;14.68;5.63;;;;;;;;;;6136022;23;20028;-92
2022/04/12 02:22:36;;;;;;;6.68;5.55;;;;;;;;;;6136185;23;20017;-94
2022/04/12 02:25:03;;;;;;;9.77;7.05;;;;;;;;;;6135353;23;20397;-90
2022/04/12 02:27:29;;;;;;;9.68;6.28;;;;;;;;;;6159734;23;20013;-88
2022/04/12 02:29:55;;;;;;;11.90;6.32;;;;;;;;;;6135297;23;20017;-88
2022/04/12 02:32:21;;;;;;;9.70;6.55;;;;;;;;;;6159889;23;20017;-89
2022/04/12 02:34:47;;;;;;;11.63;6.55;;;;;;;;;;6160488;23;20023;-85
2022/04/12 02:37:13;;;;;;;8.93;5.88;;;;;;;;;;6159334;23;20017;-92
2022/04/12 02:39:39;;;;;;;8.70;6.55;;;;;;;;;;6159953;23;20075;-86
2022/04/12 02:42:06;;;;;;;10.90;6.95;;;;;;;;;;6159681;23;20090;-85
2022/04/12 02:44:32;;;;;;;8.85;6.50;;;;;;;;;;6134300;23;20415;-83
2022/04/12 02:46:58;;;;;;;9.15;6.55;;;;;;;;;;6135079;23;20013;-86
2022/04/12 02:49:24;;;;;;;8.25;6.20;;;;;;;;;;6134532;23;20341;-89
2022/04/12 02:51:51;;;;;;;9.75;6.65;;;;;;;;;;6135011;23;20463;-89
2022/04/12 02:54:17;;;;;;;9.93;6.35;;;;;;;;;;6159627;23;20450;-87
2022/04/12 02:56:43;;;;;;;9.77;6.13;;;;;;;;;;6158989;23;20013;-83
2022/04/12 02:59:09;;;;;;;9.38;6.70;;;;;;;;;;6159246;23;20023;-88
2022/04/12 03:01:36;;;;;;;12.88;6.82;;;;;;;;;;6134289;23;20013;-87
2022/04/12 03:04:02;;;;;;;9.43;6.32;;;;;;;;;;6135036;23;20021;-87
2022/04/12 03:06:28;;;;;;;8.40;6.43;;;;;;;;;;6160148;23;20384;-89
2022/04/12 03:08:54;;;;;;;9.98;7.15;;;;;;;;;;6134909;23;20044;-87
2022/04/12 03:11:20;;;;;;;8.18;6.43;;;;;;;;;;6135107;23;20048;-91
2022/04/12 03:13:46;;;;;;;13.85;6.50;;;;;;;;;;6159717;23;20079;-90
2022/04/12 03:16:13;;;;;;;8.43;6.55;;;;;;;;;;6134702;23;20071;-87
2022/04/12 03:18:39;;;;;;;10.25;6.72;;;;;;;;;;6134322;23;20064;-86
2022/04/12 03:21:05;;;;;;;12.15;7.35;;;;;;;;;;6134560;23;20393;-83
2022/04/12 03:23:31;;;;;;;11.68;7.40;;;;;;;;;;6159662;23;20397;-83
2022/04/12 03:25:57;;;;;;;17.25;7.80;;;;;;;;;;6134087;23;20017;-83
2022/04/12 03:28:23;;;;;;;12.65;7.53;;;;;;;;;;6159729;23;20021;-85
2022/04/12 03:30:49;;;;;;;11.52;7.03;;;;;;;;;;6135964;23;20021;-82
2022/04/12 03:33:15;;;;;;;10.93;6.35;;;;;;;;;;6160776;23;20017;-85
2022/04/12 03:35:43;;;;;;;13.13;7.78;;;;;;;;;;6136685;23;20079;-91
2022/04/12 03:38:09;;;;;;;10.63;7.13;;;;;;;;;;6136196;23;20443;-92
2022/04/12 03:40:35;;;;;;;8.90;7.13;;;;;;;;;;6136031;23;20021;-82
2022/04/12 03:43:02;;;;;;;10.95;8.07;;;5.70;99.90;;;;;;6136108;23;20048;-90
2022/04/12 03:45:29;;;;;;;11.65;7.57;;;;;;;;;;6161389;23;20534;-87
2022/04/12 03:47:55;;;;;;;18.95;8.02;;;;;;;;;;6136444;23;20450;-85
2022/04/12 03:50:22;;;;;;;13.85;8.30;;;;;;;;;;6136286;23;20056;-87
2022/04/12 03:52:48;;;;;;;13.70;8.10;;;;;;;;;;6136088;23;20012;-82
2022/04/12 03:55:14;;;;;;;11.65;8.65;;;;;;;;;;6135892;23;20021;-84
2022/04/12 03:57:40;;;;;;;13.52;9.20;;;;;;;;;;6161090;23;20051;-83
2022/04/12 04:00:08;;;;;;;15.18;8.85;;;;;;;;;;6135741;23;20021;-85
2022/04/12 04:02:37;;;;;;;12.00;8.35;;;;;;;;;;6136834;23;20017;-85
2022/04/12 04:05:04;;;;;;;14.80;9.05;;;;;;;;;;6163905;23;20036;-91
2022/04/12 04:07:30;;;;;;;12.80;8.65;;;;;;;;;;6164341;23;20092;-89
2022/04/12 04:09:56;;;;;;;12.95;8.95;;;;;;;;;;6164716;23;20460;-93
2022/04/12 04:12:22;;;;;;;15.32;8.73;;;;;;;;;;6164452;23;20482;-92
2022/04/12 04:14:49;;;;;;;16.67;9.48;;;;;;;;;;6138854;23;20017;-91
2022/04/12 04:17:15;;;;;;;15.60;9.68;;;;;;;;;;6138196;23;20020;-85
2022/04/12 04:19:41;;;;;;;19.65;9.95;;;;;;;;;;6138388;23;20032;-89
2022/04/12 04:22:07;;;;;;;15.00;9.55;;;;;;;;;;6139343;23;20017;-91
2022/04/12 04:24:33;;;;;;;12.60;9.38;;;;;;;;;;6139110;23;20025;-91
2022/04/12 04:26:59;;;;;;;15.25;10.13;;;;;;;;;;6140519;23;20027;-84
2022/04/12 04:29:32;;;;;;;12.13;9.18;;;;;;;;;;6165884;23;20028;-93
2022/04/12 04:31:58;;;;;;;16.80;10.35;;;;;;;;;;6191324;23;20048;-91
2022/04/12 04:34:24;;;;;;;16.48;9.43;;;;;;;;;;6191507;23;20020;-88
2022/04/12 04:36:50;;;;;;;16.48;10.48;;;;;;;;;;6191363;23;20067;-91
2022/04/12 04:39:16;;;;;;;16.20;10.05;;;;;;;;;;6164613;23;20028;-88
2022/04/12 04:41:43;;;;;;;11.35;9.63;;;;;;;;;;6191358;23;20020;-92
2022/04/12 04:44:09;;;;;;;14.63;9.57;;;;;;;;;;6165334;23;20049;-91
2022/04/12 04:46:35;;;;;;;18.92;11.65;;;;;;;;;;6165661;23;20075;-93
2022/04/12 04:49:01;;;;;;;17.48;10.82;;;;;;;;;;6165042;23;20077;-92
2022/04/12 04:51:27;;;;;;;21.05;10.57;;;;;;;;;;6141464;23;20017;-92
2022/04/12 04:53:58;;;;;;;15.63;9.90;;;;;;;;;;6166650;23;20021;-93
2022/04/12 04:56:27;;;;;;;18.27;11.35;;;;;;;;;;6143491;23;20063;-92
2022/04/12 04:58:54;;;;;;;14.30;10.93;;;;;;;;;;6166304;23;20028;-93
2022/04/12 05:01:20;;;;;;;19.58;12.18;;;;;;;;;;6167659;23;20041;-92
2022/04/12 05:03:47;;;;;;;14.38;10.40;;;;;;;;;;6168109;23;20021;-90
2022/04/12 05:06:14;;;;;;;14.70;10.18;;;;;;;;;;6145802;23;20013;-93
2022/04/12 05:08:40;;;;;;;14.52;10.10;;;;;;;;;;6142763;23;20013;-87
2022/04/12 05:11:06;;;;;;;19.80;10.63;;;;;;;;;;6166068;23;20031;-85
2022/04/12 05:13:33;;;;;;;13.77;9.70;;;;;;;;;;6138963;23;20474;-88
2022/04/12 05:15:59;;;;;;;19.08;10.40;;;;;;;;;;6136771;23;20086;-89
2022/04/12 05:18:25;;;;;;;17.70;10.02;;;;;;;;;;6138675;23;20068;-91
2022/04/12 05:20:51;;;;;;;14.02;9.93;;;;;;;;;;6163319;23;20032;-92
2022/04/12 05:23:17;;;;;;;18.55;10.27;;;;;;;;;;6139215;23;20070;-87
2022/04/12 05:25:43;;;;;;;15.65;10.45;;;;;;;;;;6138176;23;20025;-93
2022/04/12 05:28:09;;;;;;;13.57;9.45;;;;;;;;;;6139279;23;20419;-92
2022/04/12 05:30:35;;;;;;;15.88;10.15;;;;;;;;;;6140206;23;20017;-92
2022/04/12 05:33:01;;;;;;;13.30;10.10;;;;;;;;;;6163712;23;20028;-88
2022/04/12 05:35:27;;;;;;;14.02;9.63;;;;;;;;;;6137790;23;20052;-86
2022/04/12 05:37:54;;;;;;;14.55;8.88;;;;;;;;;;6163575;23;20017;-91
2022/04/12 05:40:22;;;;;;;12.85;9.27;;;;;;;;;;6139740;23;20013;-94
2022/04/12 05:42:48;;;;;;;16.35;9.35;;;;;;;;;;6162766;23;20017;-92
2022/04/12 05:45:15;;;;;;;13.88;9.57;;;;;;;;;;6139021;23;20020;-94
2022/04/12 05:47:45;;;;;;;14.85;9.30;;;;;;;;;;6139598;23;20068;-90
2022/04/12 05:50:12;;;;;;;14.80;9.38;;;;;;;;;;6137792;23;20044;-84
2022/04/12 05:52:41;;;;;;;15.23;9.60;;;;;;;;;;6160907;23;20493;-95
2022/04/12 05:55:26;;;;;;;17.52;9.85;;;6.00;99.90;;;;;;6135569;23;20024;-95
2022/04/12 05:57:55;;;;;;;13.02;9.55;;;;;;;;;;6157164;23;20013;-92
2022/04/12 06:00:21;;;;;;;14.95;9.45;;;;;;;;;;6135441;23;20025;-93
2022/04/12 06:02:48;;;;;;;14.52;8.80;;;6.20;99.90;;;;;;6135794;23;20097;-94
2022/04/12 06:05:14;;;;;;;15.63;9.50;;;;;;;;;;6135492;23;20347;-92
2022/04/12 06:07:41;;;;;;;12.75;8.88;;;;;;;;;;6161329;23;20048;-92
2022/04/12 06:10:08;;;;;;;14.38;9.25;;;;;;;;;;6160377;23;20021;-92
2022/04/12 06:12:34;;;;;;;14.02;9.05;;;;;;;;;;6159894;23;20013;-90
2022/04/12 06:15:00;;;;;;;13.63;8.70;;;;;;;;;;6160090;23;20095;-88
2022/04/12 06:17:30;;;;;;;15.85;9.73;;;;;;;;;;6135908;23;20017;-84
2022/04/12 06:20:01;;;;;;;18.67;10.25;;;6.70;99.90;;;;;;6135607;23;20024;-83
2022/04/12 06:22:27;;;;;;;15.13;8.93;;;;;;;;;;6160718;23;20017;-88
2022/04/12 06:24:53;;;;;;;14.05;9.27;;;;;;;;;;6135243;23;20393;-86
2022/04/12 06:27:28;;;;;;;11.07;8.38;;;;;;;;;;6134741;23;20458;-86
2022/04/12 06:29:54;;;;;;;17.08;9.73;;;;;;;;;;6135797;23;20021;-88
2022/04/12 06:32:20;;;;;;;13.13;8.85;;;;;;;;;;6136040;23;20049;-93
2022/04/12 06:34:46;;;;;;;11.65;8.43;;;;;;;;;;6159954;23;20021;-85
2022/04/12 06:37:12;;;;;;;12.70;8.93;;;;;;;;;;6159960;23;20075;-92
2022/04/12 06:39:38;;;;;;;14.63;8.73;;;;;;;;;;6160501;23;20021;-91
2022/04/12 06:42:05;;;;;;;17.33;9.25;;;;;;;;;;6159985;23;20077;-92
2022/04/12 06:44:32;;;;;;;20.67;10.10;;;;;;;;;;6159091;23;20537;-91
2022/04/12 06:46:58;;;;;;;12.57;8.82;;;;;;;;;;6135230;23;20095;-92
2022/04/12 06:49:24;;;;;;;14.40;9.25;;;;;;;;;;6135367;23;20521;-90
2022/04/12 06:51:50;;;;;;;16.75;8.25;;;;;;;;;;6159789;23;20286;-88
2022/04/12 06:54:16;;;;;;;15.45;9.70;;;;;;;;;;6135343;23;20021;-93
2022/04/12 06:56:43;;;;;;;13.90;9.68;;;;;;;;;;6135726;23;20017;-89
2022/04/12 06:59:09;;;;;;;12.80;9.20;;;;;;;;;;6159843;23;20020;-89
2022/04/12 07:01:35;;;;;;;14.80;10.13;;;;;;;;;;6134896;23;20096;-90
2022/04/12 07:04:01;;;;;;;19.25;9.90;;;;;;;;;;6137264;23;20103;-88
2022/04/12 07:06:27;;;;;;;17.60;10.32;;;;;;;;;;6137033;23;20021;-90
2022/04/12 07:08:53;;;;;;;18.23;9.25;;;;;;;;;;6161769;23;20017;-86
2022/04/12 07:11:20;;;;;;;19.00;9.38;;;;;;;;;;6161672;23;20323;-84
2022/04/12 07:13:46;;;;;;;16.98;10.27;;;;;;;;;;6136672;23;20488;-83
2022/04/12 07:16:12;;;;;;;19.98;10.60;;;;;;;;;;6136544;23;20013;-90
2022/04/12 07:18:38;;;;;;;18.95;9.85;;;;;;;;;;6136984;23;20021;-94
2022/04/12 07:21:04;;;;;;;17.58;9.55;;;;;;;;;;6136842;23;20013;-83
2022/04/12 07:23:30;;;;;;;13.63;9.10;;;;;;;;;;6161964;23;20020;-87
2022/04/12 07:25:56;;;;;;;15.05;10.00;;;;;;;;;;6162159;23;20067;-87
2022/04/12 07:28:23;;;;;;;13.93;10.20;;;;;;;;;;6161372;23;20032;-85
2022/04/12 07:30:49;;;;;;;13.73;9.95;;;;;;;;;;6160916;23;20072;-90
2022/04/12 07:33:15;;;;;;;13.68;8.65;;;;;;;;;;6136439;23;20020;-83
2022/04/12 07:35:41;;;;;;;15.75;10.05;;;;;;;;;;6136060;23;20032;-88
2022/04/12 07:38:07;;;;;;;13.98;9.73;;;;;;;;;;6161214;23;20398;-87
2022/04/12 07:40:33;;;;;;;16.48;9.18;;;;;;;;;;6161411;23;20477;-88
2022/04/12 07:43:00;;;;;;;12.77;8.93;;;;;;;;;;6161874;23;20105;-85
2022/04/12 07:45:26;;;;;;;11.80;8.98;;;;;;;;;;6136388;23;20018;-89
2022/04/12 07:47:52;;;;;;;15.38;9.80;;;;;;;;;;6136330;23;20028;-90
2022/04/12 07:50:18;;;;;;;12.57;8.73;;;;;;;;;;6137071;23;20088;-89
2022/04/12 07:52:44;;;;;;;14.70;9.55;;;;;;;;;;6161477;23;20017;-90
2022/04/12 07:55:10;;;;;;;13.13;8.80;;;;;;;;;;6136610;23;20350;-94
2022/04/12 07:57:36;;;;;;;14.57;8.57;;;;;;;;;;6161717;23;20036;-87
2022/04/12 08:00:03;;;;;;;11.10;8.15;;;;;;;;;;6137300;23;20021;-89
2022/04/12 08:02:29;;;;;;;10.90;8.07;;;;;;;;;;6163451;23;20017;-87
2022/04/12 08:04:56;;;;;;;14.98;8.85;;;;;;;;;;6162794;23;20455;-95
2022/04/12 08:07:22;;;;;;;12.48;8.50;;;;;;;;;;6162277;23;20078;-91
2022/04/12 08:09:48;;;;;;;14.77;9.20;;;;;;;;;;6136775;23;20477;-93
2022/04/12 08:12:14;;;;;;;11.50;8.05;;;;;;;;;;6161482;23;20013;-90
2022/04/12 08:14:40;;;;;;;12.48;8.63;;;;;;;;;;6136174;23;20053;-91
2022/04/12 08:17:06;;;;;;;12.93;8.40;;;;;;;;;;6137493;23;20013;-91
2022/04/12 08:19:32;;;;;;;11.65;7.90;;;;;;;;;;6137734;23;20103;-92
2022/04/12 08:22:01;;;;;;;12.73;8.82;;;;;;;;;;6136841;23;20346;-90
2022/04/12 08:24:27;;;;;;;13.00;9.02;;;;;;;;;;6136871;23;20052;-86
2022/04/12 08:26:53;;;;;;;11.20;8.98;;;;;;;;;;6136035;23;20017;-88
2022/04/12 08:29:19;;;;;;;11.45;8.13;;;;;;;;;;6136571;23;20455;-87
2022/04/12 08:31:45;;;;;;;10.93;8.38;;;;;;;;;;6160346;23;20020;-83
2022/04/12 08:34:11;;;;;;;14.05;8.63;;;;;;;;;;6160379;23;20362;-84
2022/04/12 08:36:37;;;;;;;15.15;8.35;;;;;;;;;;6136009;23;20468;-89
2022/04/12 08:39:03;;;;;;;13.88;9.07;;;;;;;;;;6161295;23;20419;-84
2022/04/12 08:41:30;;;;;;;12.93;9.02;;;;;;;;;;6135922;23;20021;-84
2022/04/12 08:43:58;;;;;;;18.05;8.88;;;10.50;99.90;;;;;;6135914;23;20017;-93
2022/04/12 08:46:25;;;;;;;18.45;9.82;;;10.60;99.90;;;;;;6160814;23;20013;-87
2022/04/12 08:48:56;;;;;;;10.60;7.82;;;10.60;99.90;;;;;;6160746;23;20107;-95
2022/04/12 08:51:22;;;;;;;10.88;8.90;;;;;;;;;;6160694;23;20017;-89
2022/04/12 08:53:49;;;;;;;11.07;8.23;;;;;;;;;;6136121;23;20035;-87
2022/04/12 08:56:15;;;;;;;11.90;8.15;;;;;;;;;;6135924;23;20067;-92
2022/04/12 08:58:41;;;;;;;12.32;8.07;;;;;;;;;;6136457;23;20020;-90
2022/04/12 09:01:07;;;;;;;12.98;8.60;;;10.80;99.90;;;;;;6160978;23;20017;-94
2022/04/12 09:03:33;;;;;;;12.90;8.68;;;;;;;;;;6136062;23;20027;-95
2022/04/12 09:05:59;;;;;;;14.50;9.32;;;;;;;;;;6160888;23;20017;-92
2022/04/12 09:08:29;;;;;;;11.75;8.93;;;;;;;;;;6160376;23;20021;-84
2022/04/12 09:11:00;;;;;;;13.18;9.30;;;;;;;;;;6136356;23;20378;-92
2022/04/12 09:13:26;;;;;;;12.00;8.55;;;;;;;;;;6136232;23;20406;-87
2022/04/12 09:15:52;;;;;;;10.80;8.20;;;;;;;;;;6135877;23;20021;-90
2022/04/12 09:18:36;;;;;;;16.33;9.00;;;;;;;;;;6135321;23;20017;-92
2022/04/12 09:21:11;;;;;;;16.15;8.90;;;;;;;;;;6136076;23;20021;-92
2022/04/12 09:23:37;;;;;;;15.80;9.43;;;;;;;;;;6135869;23;20017;-90
2022/04/12 09:26:03;;;;;;;10.52;7.38;;;;;;;;;;6136700;23;20075;-92
2022/04/12 09:28:39;;;;;;;13.02;8.43;;;;;;;;;;6162363;23;20390;-90
2022/04/12 09:31:15;;;;;;;14.38;9.57;;;;;;;;;;6138062;23;20471;-92
2022/04/12 09:33:43;;;;;;;12.23;8.30;;;12.00;99.90;;;;;;6136518;23;20017;-89
2022/04/12 09:36:09;;;;;;;12.18;8.32;;;;;;;;;;6136275;23;20096;-91
2022/04/12 09:38:36;;;;;;;12.25;8.63;;;;;;;;;;6162334;23;20067;-92
2022/04/12 09:41:12;;;;;;;12.05;8.45;;;;;;;;;;6160887;23;20470;-85
2022/04/12 09:44:16;;;;;;;14.07;8.38;;;12.40;99.90;;;;;;6160553;23;20020;-88
2022/04/12 09:46:42;;;;;;;8.80;7.40;;;;;;;;;;6075734;23;20018;-92
2022/04/12 09:49:08;;;;;;;13.60;9.07;;;;;;;;;;6076249;23;20492;-93
2022/04/12 09:51:36;;;;;;;11.52;8.70;;;12.90;99.90;;;;;;6076996;23;20085;-92
2022/04/12 09:54:03;;;;;;;12.50;8.30;;;12.80;99.90;;;;;;6100608;23;20494;-93
2022/04/12 09:56:30;;;;;;;16.10;8.90;;;12.90;99.90;;;;;;6100213;23;20078;-93
2022/04/12 09:59:01;;;;;;;12.45;9.27;;;12.90;99.90;;;;;;6076029;23;20058;-94
2022/04/12 10:01:27;;;;;;;12.80;9.02;;;;;;;;;;6075789;23;20022;-89
2022/04/12 10:03:58;;;;;;;13.30;8.48;;;13.00;99.90;;;;;;6076287;23;20029;-94
2022/04/12 10:06:24;;;;;;;14.02;9.02;;;;;;;;;;6100684;23;20545;-94
2022/04/12 10:08:59;;;;;;;11.18;8.43;;;13.40;99.90;;;;;;6100910;23;20021;-88
2022/04/12 10:11:25;;;;;;;12.30;8.32;;;;;;;;;;6077776;23;20097;-94
2022/04/12 10:13:52;;;;;;;13.00;9.10;;;13.40;99.90;;;;;;6078068;23;20022;-95
2022/04/12 10:16:19;;;;;;;12.15;8.38;;;13.70;99.90;;;;;;6101806;23;20383;-93
2022/04/12 10:18:46;;;;;;;10.68;8.45;;;;;;;;;;6102154;23;20033;-95
2022/04/12 10:21:12;;;;;;;13.98;8.55;;;13.60;99.90;;;;;;6108765;23;20499;-90
2022/04/12 10:23:43;;;;;;;12.93;7.95;;;;;;;;;;6161582;23;20017;-93
2022/04/12 10:26:10;;;;;;;12.18;8.30;;;13.60;99.90;;;;;;6131841;23;20017;-92
2022/04/12 10:28:37;;;;;;;11.25;8.10;;;;;;;;;;6155850;23;20049;-95
2022/04/12 10:31:24;;;;;;;10.77;8.45;;;;;;;;;;6155567;23;20101;-84
2022/04/12 10:34:11;;;;;;;12.02;8.35;;;14.30;99.90;;;;;;6130800;23;20054;-84
2022/04/12 10:36:57;;;;;;;11.80;8.95;;;14.30;99.90;;;;;;6155278;23;20021;-90
2022/04/12 10:39:28;;;;;;;14.50;9.20;;;;;;;;;;6133454;23;20017;-83
2022/04/12 10:42:00;;;;;;;12.43;8.30;;;14.50;99.90;;;;;;6157456;23;20017;-90
2022/04/12 10:44:26;;;;;;;14.00;9.93;;;;;;;;;;6157360;23;20013;-92
2022/04/12 10:46:52;;;;;;;11.05;8.35;;;;;;;;;;6157332;23;20022;-87
2022/04/12 10:49:22;;;;;;;15.23;9.20;;;14.60;99.90;;;;;;6157725;23;20025;-89
2022/04/12 10:51:57;;;;;;;12.60;8.68;;;14.90;99.90;;;;;;6158279;23;20024;-87
2022/04/12 10:54:34;;;;;;;9.80;7.90;;;14.70;99.90;;;;;;6133472;23;20021;-89
2022/04/12 10:57:18;;;;;;;10.40;7.85;;;15.00;99.90;;;;;;6133871;23;20119;-84
2022/04/12 10:59:57;;;;;;;11.85;9.45;;;15.10;99.90;;;;;;6158299;23;20014;-94
2022/04/12 11:02:28;;;;;;;15.82;9.48;;;15.00;99.90;;;;;;6157554;23;20068;-89
2022/04/12 11:04:54;;;;;;;13.05;8.40;;;;;;;;;;6159000;23;20013;-88
2022/04/12 11:07:40;;;;;;;13.65;8.10;;;15.30;99.90;;;;;;6158313;23;20022;-91
2022/04/12 11:10:06;;;;;;;13.40;9.07;;;;;;;;;;6133389;23;20021;-95
2022/04/12 11:12:43;;;;;;;12.80;9.80;;;15.10;99.90;;;;;;6159017;23;20020;-93
2022/04/12 11:15:23;;;;;;;15.27;10.48;;;15.30;99.90;;;;;;6159604;23;20096;-89
2022/04/12 11:17:50;;;;;;;11.10;7.97;;;;;;;;;;6133853;23;20014;-87
2022/04/12 11:20:22;;;;;;;12.55;8.68;;;15.30;99.90;;;;;;6158228;23;20017;-87
2022/04/12 11:22:56;;;;;;;13.00;8.95;;;15.50;99.90;;;;;;6158412;23;20021;-87
2022/04/12 11:25:22;;;;;;;;;;;15.60;99.90;;;;;;6185217;23;20013;-87
2022/04/12 11:27:56;;;;;;;12.98;8.38;;;15.60;99.90;;;;;;6163066;23;19988;-88
2022/04/12 11:30:22;;;;;;;10.70;7.85;;;;;;;;;;6189510;23;20363;-90
2022/04/12 11:32:51;;;;;;;12.68;8.38;;;;;;;;;;6163111;23;20346;-85
2022/04/12 11:35:20;;;;;;;14.93;9.93;;;15.70;99.90;;;;;;6162293;23;20024;-86
2022/04/12 11:37:47;;;;;;;12.13;8.88;;;15.90;99.90;;;;;;6162423;23;20021;-88
2022/04/12 11:40:13;;;;;;;12.50;9.15;;;;;;;;;;6137891;23;20021;-86
2022/04/12 11:42:39;;;;;;;10.70;8.60;;;;;;;;;;6137849;23;20017;-84
2022/04/12 11:45:05;;;;;;;15.20;9.55;;;;;;;;;;6189586;23;20031;-87
2022/04/12 11:47:38;;;;;;;13.10;8.77;;;;;;;;;;6190047;23;20025;-88
2022/04/12 11:50:13;;;;;;;11.93;8.93;;;;;;;;;;6161646;23;20021;-86
2022/04/12 11:52:39;;;;;;;10.30;8.52;;;16.10;99.90;;;;;;6136918;23;20066;-85
2022/04/12 11:55:06;;;;;;;11.90;9.88;;;16.10;99.90;;;;;;6161023;23;20020;-86
2022/04/12 11:57:32;;;;;;;10.30;8.23;;;;;;;;;;6136977;23;20459;-84
2022/04/12 11:59:59;;;;;;;13.85;9.25;;;16.10;99.90;;;;;;6161691;23;20021;-84
2022/04/12 12:02:25;;;;;;;12.02;9.10;;;;;;;;;;6137007;23;20024;-87
2022/04/12 12:04:53;;;;;;;12.80;8.75;;;16.20;99.90;;;;;;6159874;23;20031;-89
2022/04/12 12:07:20;;;;;;;10.48;7.63;;;;;;;;;;6136141;23;20370;-87
2022/04/12 12:09:53;;;;;;;11.77;8.93;;;16.60;99.90;;;;;;6136093;23;20451;-90
2022/04/12 12:12:19;;;;;;;10.90;7.90;;;;;;;;;;6136337;23;20017;-92
2022/04/12 12:14:46;;;;;;;15.57;8.68;;;;;;;;;;6136455;23;20024;-84
2022/04/12 12:17:18;;;;;;;10.68;8.25;;;16.80;99.90;;;;;;6161331;23;20462;-89
2022/04/12 12:19:45;;;;;;;12.30;8.13;;;16.70;99.90;;;;;;6136915;23;20108;-91
2022/04/12 12:22:12;;;;;;;11.15;8.48;;;16.80;99.90;;;;;;6162338;23;20079;-91
2022/04/12 12:24:51;;;;;;;9.45;7.55;;;17.00;99.90;;;;;;6161299;23;20016;-92
2022/04/12 12:27:32;;;;;;;11.63;7.95;;;17.00;99.90;;;;;;6135970;23;20088;-84
2022/04/12 12:30:14;;;;;;;11.70;7.72;;;17.00;99.90;;;;;;6136489;23;20450;-93
2022/04/12 12:32:42;;;;;;;9.52;8.02;;;16.90;99.90;;;;;;6161180;23;20415;-94
2022/04/12 12:35:10;;;;;;;10.70;7.78;;;17.10;99.90;;;;;;6136740;23;20017;-94
2022/04/12 12:37:37;;;;;;;12.43;8.52;;;17.30;99.90;;;;;;6136781;23;20044;-91
2022/04/12 12:40:17;;;;;;;10.27;7.45;;;17.20;99.90;;;;;;6136742;23;20044;-88
2022/04/12 12:42:43;;;;;;;13.32;8.85;;;;;;;;;;6162227;23;20017;-92
2022/04/12 12:45:17;;;;;;;14.10;8.68;;;17.30;99.90;;;;;;6162056;23;20091;-91
2022/04/12 12:47:43;;;;;;;;;;;17.40;99.90;;;;;;6161843;23;20485;-95
2022/04/12 12:50:15;;;;;;;11.27;8.18;;;17.40;99.90;;;;;;6136392;23;20322;-89
2022/04/12 12:52:41;;;;;;;12.15;8.85;;;;;;;;;;6136443;23;20148;-92
2022/04/12 12:55:29;;;;;;;9.85;7.47;;;17.70;99.90;;;;;;6135865;23;20519;-90
2022/04/12 12:57:58;;;;;;;11.40;8.13;;;17.40;99.90;;;;;;6136081;23;20032;-90
2022/04/12 13:00:28;;;;;;;15.10;8.00;;;17.10;99.90;;;;;;6160708;23;20040;-88
2022/04/12 13:03:05;;;;;;;11.98;9.25;;;17.40;99.90;;;;;;6160901;23;20021;-88
2022/04/12 13:05:32;;;;;;;10.23;8.27;;;;;;;;;;6136420;23;20029;-86
2022/04/12 13:08:00;;;;;;;12.20;7.85;;;17.80;99.90;;;;;;6160466;23;20655;-86
2022/04/12 13:10:30;;;;;;;12.45;7.70;;;17.60;99.90;;;;;;6160576;23;20021;-92
2022/04/12 13:12:57;;;;;;;11.93;7.47;;;;;;;;;;6136785;23;20095;-89
2022/04/12 13:15:23;;;;;;;16.02;8.25;;;;;;;;;;6136165;23;20412;-91
2022/04/12 13:17:49;;;;;;;11.75;8.07;;;17.80;99.90;;;;;;6160818;23;20013;-90
2022/04/12 13:20:16;;;;;;;10.48;7.75;;;17.80;99.90;;;;;;6135599;23;20387;-94
2022/04/12 13:22:43;;;;;;;14.52;8.40;;;17.60;99.90;;;;;;6161090;23;20021;-88
2022/04/12 13:25:11;;;;;;;12.77;9.15;;;;;;;;;;6162008;23;20450;-86
2022/04/12 13:27:37;;;;;;;10.85;8.02;;;;;;;;;;6137058;23;20516;-91
2022/04/12 13:30:07;;;;;;;14.20;9.48;;;17.70;99.90;;;;;;6136375;23;20103;-88
2022/04/12 13:32:33;;;;;;;12.98;8.65;;;;;;;;;;6161384;23;20404;-86
2022/04/12 13:34:59;;;;;;;13.07;8.57;;;;;;;;;;6136466;23;20546;-90
2022/04/12 13:37:25;;;;;;;13.10;8.15;;;;;;;;;;6136407;23;20092;-90
2022/04/12 13:39:51;;;;;;;15.75;8.95;;;;;;;;;;6135775;23;20021;-91
2022/04/12 13:42:18;;;;;;;14.68;9.38;;;17.90;99.90;;;;;;6134835;23;20529;-86
2022/04/12 13:44:49;;;;;;;11.80;8.80;;;;;;;;;;6159772;23;20113;-86
2022/04/12 13:47:17;;;;;;;13.35;9.30;;;;;;;;;;6160264;23;20463;-86
2022/04/12 13:49:43;;;;;;;14.50;9.15;;;;;;;;;;6135434;23;20023;-88
2022/04/12 13:52:10;;;;;;;15.85;9.20;;;;;;;;;;6135041;23;20017;-84
2022/04/12 13:54:36;;;;;;;14.68;9.05;;;;;;;;;;6135322;23;20021;-84
2022/04/12 13:57:02;;;;;;;13.48;9.45;;;;;;;;;;6135458;23;20076;-90
2022/04/12 13:59:28;;;;;;;13.98;9.73;;;;;;;;;;6161077;23;20143;-85
2022/04/12 14:01:54;;;;;;;13.15;9.13;;;;;;;;;;6160278;23;20017;-91
2022/04/12 14:04:21;;;;;;;14.48;9.57;;;18.70;99.90;;;;;;6159720;23;20351;-92
2022/04/12 14:06:47;;;;;;;13.57;9.55;;;;;;;;;;6136231;23;20021;-91
2022/04/12 14:09:14;;;;;;;12.90;9.98;;;;;;;;;;6135630;23;20017;-85
2022/04/12 14:11:43;;;;;;;14.45;9.48;;;;;;;;;;6136246;23;20021;-93